Monday, December 18, 2017, 5:40 AM EST
Back to Local

KW22, Buckhannon, Upshur County Regional Airport

Location: Buckhannon, WV, United States Lat: 39
Local Time: 5:40 AM EST (10:40 GMT) Lon: -80.267
Time Zone: US/Eastern Elev: 1633 ft

Show me the last for .
Show Coded

Time T Td Feel RH Dir Speed Gust Alt SLP Vis Weather Sky Remarks
2017-12-18 05:15 37 37 34 100 230° 5 - 30.10 - 1 BR OVC004 None
2017-12-18 04:55 37 37 33 100 230° 6 - 30.10 - 3 BR OVC004 None
2017-12-18 04:35 37 37 31 100 230° 8 - 30.09 - 3 BR OVC004 None
2017-12-18 04:15 37 37 33 100 210° 6 - 30.09 - 3 BR OVC004 None
2017-12-18 03:55 37 37 33 100 220° 6 - 30.10 - 3 BR OVC004 None
2017-12-18 03:35 37 37 33 100 220° 6 - 30.10 - 4 BR OVC005 None
2017-12-18 03:15 37 37 33 100 220° 6 - 30.11 - 7 OVC005 None
2017-12-18 02:55 37 37 31 100 230° 8 - 30.10 - 8 OVC005 None
2017-12-18 02:35 37 37 34 100 230° 5 - 30.11 - 7 OVC004 None
2017-12-18 02:15 37 37 33 100 220° 6 - 30.10 - 3 BR OVC003 None
2017-12-18 01:55 37 37 33 100 220° 6 - 30.10 - 1 BR OVC003 None
2017-12-18 01:35 37 37 32 100 220° 7 - 30.10 - 1 BR OVC003 None
2017-12-18 01:15 37 37 33 100 210° 6 - 30.09 - 2 BR OVC003 None
2017-12-18 00:55 37 37 34 100 210° 5 - 30.10 - 1 BR OVC003 None
2017-12-18 00:35 37 37 31 100 210° 9 - 30.10 - 2 BR OVC003 None
2017-12-18 00:15 37 37 34 100 200° 5 - 30.11 - 0 BR OVC002 None
2017-12-17 23:55 37 37 35 100 200° 3 - 30.11 - 0 FG OVC002 None
2017-12-17 23:35 37 37 - 100 - Calm - 30.12 - 1 BR OVC003 None
2017-12-17 23:15 37 37 35 100 200° 3 - 30.12 - 2 BR OVC004 None
2017-12-17 22:55 37 37 - 100 - Calm - 30.13 - 3 BR BKN007 OVC012 None
2017-12-17 22:35 37 36 34 93 210° 5 - 30.12 - 3 BR OVC014 None
2017-12-17 22:15 39 34 34 80 210° 7 - 30.12 - 6 HZ BKN016 OVC021 None
2017-12-17 21:55 39 32 33 75 220° 9 - 30.12 - 10 OVC024 None
2017-12-17 21:35 39 32 31 75 210° 9 15 30.12 - 10 OVC028 None
2017-12-17 21:20 39 30 35 69 210° 6 - 30.12 - 10 OVC030 None
2017-12-17 20:55 39 28 - 64 - Calm - 30.12 - 10 OVC035 None
2017-12-17 20:35 39 28 - 64 - Calm - 30.12 - 10 OVC036 None
2017-12-17 20:15 41 28 - 60 - Calm - 30.12 - 10 BKN037 OVC044 None
2017-12-17 19:55 41 28 38 60 240° 5 - 30.13 - 10 OVC044 None
2017-12-17 19:35 41 28 38 60 220° 5 - 30.12 - 10 BKN041 OVC050 None
2017-12-17 19:15 41 28 38 60 220° 5 - 30.12 - 10 BKN050 OVC055 None
2017-12-17 18:55 41 28 36 60 240° 7 - 30.11 - 10 FEW026 SCT031 OVC060 None
2017-12-17 18:35 41 28 33 60 230° 7 14 30.12 - 9 -UP FEW022 BKN028 OVC055 None
2017-12-17 18:15 41 28 36 60 250° 7 - 30.13 - 10 SCT027 BKN048 OVC055 None
2017-12-17 17:55 41 28 - 60 - Calm - 30.13 - 10 None
2017-12-17 17:35 41 28 - 60 - Calm - 30.12 - 10 None
2017-12-17 17:15 41 28 - 60 - Calm - 30.13 - 10 OVC065 None
2017-12-17 16:55 43 27 - 52 - Calm - 30.13 - 10 OVC070 None
2017-12-17 16:35 41 28 - 60 - Calm - 30.14 - 10 OVC070 None
2017-12-17 16:15 43 28 - 56 - Calm - 30.14 - 10 None
2017-12-17 15:55 43 28 - 56 - Calm - 30.13 - 10 None
2017-12-17 15:35 43 28 - 56 - Calm - 30.11 - 10 FEW060 OVC080 None
2017-12-17 15:15 43 28 - 56 - Calm - 30.11 - 10 BKN085 None
2017-12-17 14:50 43 27 - 52 - Calm - 30.10 - 10 FEW065 SCT090 None
2017-12-17 14:30 43 27 - 52 - Calm - 30.08 - 10 CLR None
2017-12-17 14:10 43 28 40 56 200° 5 - 30.10 - 10 SCT100 None
2017-12-17 13:55 43 28 39 56 180° 7 - 30.10 - 10 BKN110 None
2017-12-17 13:35 43 28 39 56 190° 6 - 30.12 - 10 SCT110 None
2017-12-17 13:15 43 28 39 56 190° 7 - 30.13 - 10 CLR None
2017-12-17 12:55 41 28 - 60 - Calm - 30.14 - 10 CLR None
2017-12-17 12:35 41 28 39 60 180° 3 - 30.17 - 10 CLR None
2017-12-17 12:15 41 28 - 60 - Calm - 30.18 - 10 CLR None
2017-12-17 11:55 41 28 38 60 210° 5 - 30.19 - 10 FEW040 FEW060 FEW070 None
2017-12-17 11:35 39 28 36 64 200° 5 - 30.20 - 10 FEW039 FEW060 None
2017-12-17 11:15 39 28 36 64 200° 5 - 30.22 - 10 CLR None
2017-12-17 10:55 39 27 - 60 - - - 30.22 - 10 CLR None
2017-12-17 10:30 39 27 36 60 180° 5 - 30.25 - 10 CLR None
2017-12-17 10:15 39 27 36 60 210° 5 - 30.26 - 10 CLR None
2017-12-17 09:55 37 27 33 64 200° 6 - 30.25 - 10 CLR None
2017-12-17 09:35 37 27 33 64 220° 6 - 30.23 - 10 CLR None
2017-12-17 09:15 36 25 31 64 210° 6 - 30.22 - 10 CLR None
2017-12-17 08:55 36 25 33 64 190° 3 - 30.20 - 10 CLR None
2017-12-17 08:35 34 25 31 69 190° 3 - 30.19 - 10 CLR None
2017-12-17 08:15 36 25 33 64 160° 3 - 30.18 - 10 CLR None
2017-12-17 07:55 36 25 32 64 170° 5 - 30.20 - 10 CLR None
2017-12-17 07:35 36 25 31 64 200° 6 - 30.21 - 10 CLR None
2017-12-17 07:15 34 25 28 69 200° 7 - 30.23 - 10 CLR None
2017-12-17 06:55 34 25 28 69 210° 7 - 30.22 - 10 FEW037 None
2017-12-17 06:35 36 25 30 64 200° 7 - 30.21 - 10 FEW037 None
2017-12-17 06:10 34 25 29 69 220° 6 - 30.21 - 10 FEW040 None
2017-12-17 05:55 34 25 30 69 210° 5 - 30.20 - 10 FEW038 None

Support USWX by starting your Amazon purchase here.